sensor_id;sensor_type;location;lat;lon;timestamp;P1;durP1;ratioP1;P2;durP2;ratioP2
12774;SDS011;6451;42.630;23.382;2022-11-14T00:01:03;19.70;;;14.37;;
12774;SDS011;6451;42.630;23.382;2022-11-14T00:03:34;18.20;;;13.27;;
12774;SDS011;6451;42.630;23.382;2022-11-14T00:06:03;17.70;;;13.23;;
12774;SDS011;6451;42.630;23.382;2022-11-14T00:08:33;17.83;;;13.77;;
12774;SDS011;6451;42.630;23.382;2022-11-14T00:11:01;18.20;;;13.30;;
12774;SDS011;6451;42.630;23.382;2022-11-14T00:13:28;16.67;;;13.27;;
12774;SDS011;6451;42.630;23.382;2022-11-14T00:15:56;17.80;;;13.77;;
12774;SDS011;6451;42.630;23.382;2022-11-14T00:18:23;17.27;;;12.90;;
12774;SDS011;6451;42.630;23.382;2022-11-14T00:20:51;17.37;;;12.70;;
12774;SDS011;6451;42.630;23.382;2022-11-14T00:23:19;17.67;;;13.80;;
12774;SDS011;6451;42.630;23.382;2022-11-14T00:25:48;17.33;;;12.47;;
12774;SDS011;6451;42.630;23.382;2022-11-14T00:28:14;17.67;;;13.20;;
12774;SDS011;6451;42.630;23.382;2022-11-14T00:30:46;16.83;;;12.43;;
12774;SDS011;6451;42.630;23.382;2022-11-14T00:33:14;17.63;;;13.17;;
12774;SDS011;6451;42.630;23.382;2022-11-14T00:35:48;16.53;;;12.73;;
12774;SDS011;6451;42.630;23.382;2022-11-14T00:38:16;18.97;;;14.17;;
12774;SDS011;6451;42.630;23.382;2022-11-14T00:40:43;16.17;;;13.57;;
12774;SDS011;6451;42.630;23.382;2022-11-14T00:43:11;17.53;;;13.37;;
12774;SDS011;6451;42.630;23.382;2022-11-14T00:45:38;18.40;;;13.50;;
12774;SDS011;6451;42.630;23.382;2022-11-14T00:48:06;17.07;;;13.37;;
12774;SDS011;6451;42.630;23.382;2022-11-14T00:50:33;18.03;;;14.13;;
12774;SDS011;6451;42.630;23.382;2022-11-14T00:53:01;18.47;;;14.70;;
12774;SDS011;6451;42.630;23.382;2022-11-14T00:55:28;20.37;;;15.63;;
12774;SDS011;6451;42.630;23.382;2022-11-14T00:57:57;18.50;;;14.33;;
12774;SDS011;6451;42.630;23.382;2022-11-14T01:00:32;18.30;;;13.67;;
12774;SDS011;6451;42.630;23.382;2022-11-14T01:03:00;17.80;;;13.90;;
12774;SDS011;6451;42.630;23.382;2022-11-14T01:05:27;17.53;;;13.90;;
12774;SDS011;6451;42.630;23.382;2022-11-14T01:07:55;18.00;;;13.27;;
12774;SDS011;6451;42.630;23.382;2022-11-14T01:10:22;19.70;;;14.43;;
12774;SDS011;6451;42.630;23.382;2022-11-14T01:12:50;17.27;;;13.50;;
12774;SDS011;6451;42.630;23.382;2022-11-14T01:15:17;16.87;;;13.70;;
12774;SDS011;6451;42.630;23.382;2022-11-14T01:17:45;17.17;;;12.87;;
12774;SDS011;6451;42.630;23.382;2022-11-14T01:20:12;18.60;;;14.67;;
12774;SDS011;6451;42.630;23.382;2022-11-14T01:22:39;20.10;;;14.33;;
12774;SDS011;6451;42.630;23.382;2022-11-14T01:25:06;17.40;;;13.43;;
12774;SDS011;6451;42.630;23.382;2022-11-14T01:27:33;16.33;;;12.27;;
12774;SDS011;6451;42.630;23.382;2022-11-14T01:30:00;17.43;;;12.87;;
12774;SDS011;6451;42.630;23.382;2022-11-14T01:32:30;16.03;;;12.70;;
12774;SDS011;6451;42.630;23.382;2022-11-14T01:34:58;15.40;;;12.73;;
12774;SDS011;6451;42.630;23.382;2022-11-14T01:37:27;15.90;;;12.13;;
12774;SDS011;6451;42.630;23.382;2022-11-14T01:39:54;14.40;;;11.23;;
12774;SDS011;6451;42.630;23.382;2022-11-14T01:42:21;16.03;;;11.47;;
12774;SDS011;6451;42.630;23.382;2022-11-14T01:44:48;16.40;;;11.57;;
12774;SDS011;6451;42.630;23.382;2022-11-14T01:47:17;15.40;;;10.57;;
12774;SDS011;6451;42.630;23.382;2022-11-14T01:49:49;15.37;;;11.07;;
12774;SDS011;6451;42.630;23.382;2022-11-14T01:52:21;16.10;;;11.97;;
12774;SDS011;6451;42.630;23.382;2022-11-14T01:54:54;19.03;;;12.03;;
12774;SDS011;6451;42.630;23.382;2022-11-14T01:57:26;17.03;;;12.47;;
12774;SDS011;6451;42.630;23.382;2022-11-14T02:00:03;17.77;;;12.20;;
12774;SDS011;6451;42.630;23.382;2022-11-14T02:02:34;15.60;;;12.23;;
12774;SDS011;6451;42.630;23.382;2022-11-14T02:05:04;15.57;;;11.43;;
12774;SDS011;6451;42.630;23.382;2022-11-14T02:07:37;15.77;;;11.70;;
12774;SDS011;6451;42.630;23.382;2022-11-14T02:10:07;14.73;;;11.13;;
12774;SDS011;6451;42.630;23.382;2022-11-14T02:12:36;17.60;;;11.63;;
12774;SDS011;6451;42.630;23.382;2022-11-14T02:15:03;15.30;;;11.20;;
12774;SDS011;6451;42.630;23.382;2022-11-14T02:17:32;15.50;;;11.03;;
12774;SDS011;6451;42.630;23.382;2022-11-14T02:20:04;11.97;;;10.60;;
12774;SDS011;6451;42.630;23.382;2022-11-14T02:22:40;13.57;;;10.53;;
12774;SDS011;6451;42.630;23.382;2022-11-14T02:25:09;15.10;;;11.67;;
12774;SDS011;6451;42.630;23.382;2022-11-14T02:27:40;13.47;;;10.47;;
12774;SDS011;6451;42.630;23.382;2022-11-14T02:30:09;13.67;;;11.87;;
12774;SDS011;6451;42.630;23.382;2022-11-14T02:32:39;14.10;;;11.50;;
12774;SDS011;6451;42.630;23.382;2022-11-14T02:35:08;13.83;;;10.83;;
12774;SDS011;6451;42.630;23.382;2022-11-14T02:37:35;14.63;;;11.47;;
12774;SDS011;6451;42.630;23.382;2022-11-14T02:40:02;13.33;;;10.80;;
12774;SDS011;6451;42.630;23.382;2022-11-14T02:42:29;15.37;;;12.03;;
12774;SDS011;6451;42.630;23.382;2022-11-14T02:44:57;17.60;;;12.33;;
12774;SDS011;6451;42.630;23.382;2022-11-14T02:47:25;13.73;;;11.10;;
12774;SDS011;6451;42.630;23.382;2022-11-14T02:49:52;15.77;;;12.63;;
12774;SDS011;6451;42.630;23.382;2022-11-14T02:52:23;14.63;;;11.77;;
12774;SDS011;6451;42.630;23.382;2022-11-14T02:54:50;15.67;;;11.67;;
12774;SDS011;6451;42.630;23.382;2022-11-14T02:57:17;15.30;;;11.37;;
12774;SDS011;6451;42.630;23.382;2022-11-14T02:59:44;14.27;;;11.60;;
12774;SDS011;6451;42.630;23.382;2022-11-14T03:02:12;16.70;;;11.40;;
12774;SDS011;6451;42.630;23.382;2022-11-14T03:04:40;16.50;;;12.87;;
12774;SDS011;6451;42.630;23.382;2022-11-14T03:07:06;19.77;;;14.90;;
12774;SDS011;6451;42.630;23.382;2022-11-14T03:09:35;22.20;;;15.83;;
12774;SDS011;6451;42.630;23.382;2022-11-14T03:12:02;23.47;;;17.83;;
12774;SDS011;6451;42.630;23.382;2022-11-14T03:14:32;25.47;;;18.17;;
12774;SDS011;6451;42.630;23.382;2022-11-14T03:16:59;24.80;;;18.67;;
12774;SDS011;6451;42.630;23.382;2022-11-14T03:19:33;26.40;;;20.10;;
12774;SDS011;6451;42.630;23.382;2022-11-14T03:22:01;34.20;;;20.80;;
12774;SDS011;6451;42.630;23.382;2022-11-14T03:24:36;52.50;;;22.60;;
12774;SDS011;6451;42.630;23.382;2022-11-14T03:27:03;34.23;;;21.63;;
12774;SDS011;6451;42.630;23.382;2022-11-14T03:29:30;32.07;;;22.93;;
12774;SDS011;6451;42.630;23.382;2022-11-14T03:31:57;68.87;;;25.87;;
12774;SDS011;6451;42.630;23.382;2022-11-14T03:34:32;64.10;;;27.30;;
12774;SDS011;6451;42.630;23.382;2022-11-14T03:36:59;46.20;;;26.70;;
12774;SDS011;6451;42.630;23.382;2022-11-14T03:39:26;61.10;;;26.97;;
12774;SDS011;6451;42.630;23.382;2022-11-14T03:41:55;65.37;;;28.23;;
12774;SDS011;6451;42.630;23.382;2022-11-14T03:44:21;53.67;;;27.60;;
12774;SDS011;6451;42.630;23.382;2022-11-14T03:46:49;60.30;;;26.83;;
12774;SDS011;6451;42.630;23.382;2022-11-14T03:49:18;38.23;;;26.13;;
12774;SDS011;6451;42.630;23.382;2022-11-14T03:51:45;30.70;;;22.67;;
12774;SDS011;6451;42.630;23.382;2022-11-14T03:54:14;46.23;;;22.03;;
12774;SDS011;6451;42.630;23.382;2022-11-14T03:56:41;54.10;;;21.60;;
12774;SDS011;6451;42.630;23.382;2022-11-14T03:59:09;27.70;;;21.30;;
12774;SDS011;6451;42.630;23.382;2022-11-14T04:01:36;29.17;;;22.03;;
12774;SDS011;6451;42.630;23.382;2022-11-14T04:04:03;29.70;;;21.10;;
12774;SDS011;6451;42.630;23.382;2022-11-14T04:06:30;30.87;;;22.27;;
12774;SDS011;6451;42.630;23.382;2022-11-14T04:08:57;31.63;;;22.73;;
12774;SDS011;6451;42.630;23.382;2022-11-14T04:11:26;30.17;;;22.97;;
12774;SDS011;6451;42.630;23.382;2022-11-14T04:13:53;32.33;;;21.00;;
12774;SDS011;6451;42.630;23.382;2022-11-14T04:16:22;29.33;;;20.03;;
12774;SDS011;6451;42.630;23.382;2022-11-14T04:18:53;29.57;;;19.07;;
12774;SDS011;6451;42.630;23.382;2022-11-14T04:21:21;24.50;;;18.13;;
12774;SDS011;6451;42.630;23.382;2022-11-14T04:23:49;27.23;;;19.07;;
12774;SDS011;6451;42.630;23.382;2022-11-14T04:26:16;25.23;;;19.10;;
12774;SDS011;6451;42.630;23.382;2022-11-14T04:28:42;25.07;;;18.80;;
12774;SDS011;6451;42.630;23.382;2022-11-14T04:31:09;26.90;;;19.50;;
12774;SDS011;6451;42.630;23.382;2022-11-14T04:33:38;28.23;;;19.83;;
12774;SDS011;6451;42.630;23.382;2022-11-14T04:36:05;26.67;;;20.47;;
12774;SDS011;6451;42.630;23.382;2022-11-14T04:38:33;25.17;;;19.47;;
12774;SDS011;6451;42.630;23.382;2022-11-14T04:41:00;25.53;;;19.77;;
12774;SDS011;6451;42.630;23.382;2022-11-14T04:43:27;26.10;;;18.87;;
12774;SDS011;6451;42.630;23.382;2022-11-14T04:45:53;26.40;;;19.10;;
12774;SDS011;6451;42.630;23.382;2022-11-14T04:48:20;26.73;;;19.57;;
12774;SDS011;6451;42.630;23.382;2022-11-14T04:50:49;24.77;;;18.50;;
12774;SDS011;6451;42.630;23.382;2022-11-14T04:53:16;26.93;;;19.50;;
12774;SDS011;6451;42.630;23.382;2022-11-14T04:55:43;27.63;;;20.03;;
12774;SDS011;6451;42.630;23.382;2022-11-14T04:58:10;25.40;;;18.77;;
12774;SDS011;6451;42.630;23.382;2022-11-14T05:00:37;28.43;;;19.87;;
12774;SDS011;6451;42.630;23.382;2022-11-14T05:03:04;25.07;;;18.37;;
12774;SDS011;6451;42.630;23.382;2022-11-14T05:05:32;25.57;;;19.00;;
12774;SDS011;6451;42.630;23.382;2022-11-14T05:08:00;24.60;;;18.17;;
12774;SDS011;6451;42.630;23.382;2022-11-14T05:10:27;26.87;;;18.50;;
12774;SDS011;6451;42.630;23.382;2022-11-14T05:12:54;26.90;;;17.47;;
12774;SDS011;6451;42.630;23.382;2022-11-14T05:15:21;29.27;;;19.00;;
12774;SDS011;6451;42.630;23.382;2022-11-14T05:17:48;28.37;;;19.10;;
12774;SDS011;6451;42.630;23.382;2022-11-14T05:20:15;37.73;;;19.53;;
12774;SDS011;6451;42.630;23.382;2022-11-14T05:22:43;35.20;;;20.67;;
12774;SDS011;6451;42.630;23.382;2022-11-14T05:25:11;47.00;;;21.77;;
12774;SDS011;6451;42.630;23.382;2022-11-14T05:27:38;43.47;;;22.30;;
12774;SDS011;6451;42.630;23.382;2022-11-14T05:30:06;75.80;;;25.10;;
12774;SDS011;6451;42.630;23.382;2022-11-14T05:32:33;71.73;;;24.70;;
12774;SDS011;6451;42.630;23.382;2022-11-14T05:35:00;61.93;;;25.20;;
12774;SDS011;6451;42.630;23.382;2022-11-14T05:37:27;130.00;;;26.67;;
12774;SDS011;6451;42.630;23.382;2022-11-14T05:39:54;178.73;;;28.87;;
12774;SDS011;6451;42.630;23.382;2022-11-14T05:42:22;77.47;;;26.07;;
12774;SDS011;6451;42.630;23.382;2022-11-14T05:44:49;80.60;;;27.13;;
12774;SDS011;6451;42.630;23.382;2022-11-14T05:47:16;79.53;;;27.03;;
12774;SDS011;6451;42.630;23.382;2022-11-14T05:49:43;60.90;;;26.33;;
12774;SDS011;6451;42.630;23.382;2022-11-14T05:52:10;65.10;;;26.37;;
12774;SDS011;6451;42.630;23.382;2022-11-14T05:54:37;85.67;;;27.53;;
12774;SDS011;6451;42.630;23.382;2022-11-14T05:57:04;88.83;;;27.90;;
12774;SDS011;6451;42.630;23.382;2022-11-14T05:59:32;73.40;;;27.77;;
12774;SDS011;6451;42.630;23.382;2022-11-14T06:01:59;65.70;;;26.13;;
12774;SDS011;6451;42.630;23.382;2022-11-14T06:04:26;72.57;;;25.17;;
12774;SDS011;6451;42.630;23.382;2022-11-14T06:06:53;63.97;;;23.80;;
12774;SDS011;6451;42.630;23.382;2022-11-14T06:09:19;57.87;;;24.17;;
12774;SDS011;6451;42.630;23.382;2022-11-14T06:11:46;58.47;;;24.23;;
12774;SDS011;6451;42.630;23.382;2022-11-14T06:14:13;62.27;;;23.97;;
12774;SDS011;6451;42.630;23.382;2022-11-14T06:16:42;61.37;;;23.33;;
12774;SDS011;6451;42.630;23.382;2022-11-14T06:19:08;59.43;;;23.70;;
12774;SDS011;6451;42.630;23.382;2022-11-14T06:21:36;56.10;;;22.83;;
12774;SDS011;6451;42.630;23.382;2022-11-14T06:24:04;51.37;;;21.87;;
12774;SDS011;6451;42.630;23.382;2022-11-14T06:26:31;72.63;;;21.57;;
12774;SDS011;6451;42.630;23.382;2022-11-14T06:28:58;48.97;;;21.17;;
12774;SDS011;6451;42.630;23.382;2022-11-14T06:31:25;41.37;;;21.50;;
12774;SDS011;6451;42.630;23.382;2022-11-14T06:33:54;35.17;;;20.57;;
12774;SDS011;6451;42.630;23.382;2022-11-14T06:36:22;74.30;;;21.77;;
12774;SDS011;6451;42.630;23.382;2022-11-14T06:38:48;37.93;;;21.57;;
12774;SDS011;6451;42.630;23.382;2022-11-14T06:41:16;79.17;;;21.40;;
12774;SDS011;6451;42.630;23.382;2022-11-14T06:43:44;53.37;;;21.03;;
12774;SDS011;6451;42.630;23.382;2022-11-14T06:46:13;40.17;;;21.73;;
12774;SDS011;6451;42.630;23.382;2022-11-14T06:48:44;40.13;;;20.93;;
12774;SDS011;6451;42.630;23.382;2022-11-14T06:51:14;45.97;;;20.87;;
12774;SDS011;6451;42.630;23.382;2022-11-14T06:53:42;43.17;;;20.07;;
12774;SDS011;6451;42.630;23.382;2022-11-14T06:56:10;33.07;;;20.73;;
12774;SDS011;6451;42.630;23.382;2022-11-14T06:58:39;54.20;;;20.37;;
12774;SDS011;6451;42.630;23.382;2022-11-14T07:01:09;34.13;;;19.50;;
12774;SDS011;6451;42.630;23.382;2022-11-14T07:03:38;34.27;;;20.67;;
12774;SDS011;6451;42.630;23.382;2022-11-14T07:06:07;29.47;;;19.60;;
12774;SDS011;6451;42.630;23.382;2022-11-14T07:08:37;42.87;;;19.53;;
12774;SDS011;6451;42.630;23.382;2022-11-14T07:11:05;41.50;;;20.53;;
12774;SDS011;6451;42.630;23.382;2022-11-14T07:13:33;34.50;;;20.00;;
12774;SDS011;6451;42.630;23.382;2022-11-14T07:16:01;35.37;;;21.70;;
12774;SDS011;6451;42.630;23.382;2022-11-14T07:18:29;41.53;;;20.60;;
12774;SDS011;6451;42.630;23.382;2022-11-14T07:20:57;50.00;;;20.63;;
12774;SDS011;6451;42.630;23.382;2022-11-14T07:23:25;41.23;;;22.37;;
12774;SDS011;6451;42.630;23.382;2022-11-14T07:25:54;32.83;;;21.47;;
12774;SDS011;6451;42.630;23.382;2022-11-14T07:28:21;50.73;;;22.30;;
12774;SDS011;6451;42.630;23.382;2022-11-14T07:30:48;38.00;;;24.50;;
12774;SDS011;6451;42.630;23.382;2022-11-14T07:33:16;43.40;;;24.30;;
12774;SDS011;6451;42.630;23.382;2022-11-14T07:35:43;54.50;;;23.53;;
12774;SDS011;6451;42.630;23.382;2022-11-14T07:38:10;33.43;;;22.57;;
12774;SDS011;6451;42.630;23.382;2022-11-14T07:40:37;35.17;;;22.23;;
12774;SDS011;6451;42.630;23.382;2022-11-14T07:43:05;40.87;;;22.60;;
12774;SDS011;6451;42.630;23.382;2022-11-14T07:45:32;41.20;;;21.37;;
12774;SDS011;6451;42.630;23.382;2022-11-14T07:47:59;38.90;;;22.33;;
12774;SDS011;6451;42.630;23.382;2022-11-14T07:50:27;39.83;;;23.60;;
12774;SDS011;6451;42.630;23.382;2022-11-14T07:52:55;39.53;;;22.27;;
12774;SDS011;6451;42.630;23.382;2022-11-14T07:55:22;44.03;;;22.93;;
12774;SDS011;6451;42.630;23.382;2022-11-14T07:57:51;37.90;;;21.60;;
12774;SDS011;6451;42.630;23.382;2022-11-14T08:00:21;60.10;;;22.43;;
12774;SDS011;6451;42.630;23.382;2022-11-14T08:02:48;42.90;;;20.37;;
12774;SDS011;6451;42.630;23.382;2022-11-14T08:05:15;44.53;;;20.90;;
12774;SDS011;6451;42.630;23.382;2022-11-14T08:07:43;37.67;;;22.17;;
12774;SDS011;6451;42.630;23.382;2022-11-14T08:10:10;32.03;;;20.60;;
12774;SDS011;6451;42.630;23.382;2022-11-14T08:12:38;33.77;;;21.30;;
12774;SDS011;6451;42.630;23.382;2022-11-14T08:15:07;28.30;;;20.53;;
12774;SDS011;6451;42.630;23.382;2022-11-14T08:17:37;47.20;;;21.90;;
12774;SDS011;6451;42.630;23.382;2022-11-14T08:20:06;66.10;;;21.27;;
12774;SDS011;6451;42.630;23.382;2022-11-14T08:22:34;31.57;;;21.07;;
12774;SDS011;6451;42.630;23.382;2022-11-14T08:25:01;41.60;;;21.03;;
12774;SDS011;6451;42.630;23.382;2022-11-14T08:27:28;29.00;;;21.30;;
12774;SDS011;6451;42.630;23.382;2022-11-14T08:29:55;28.10;;;21.63;;
12774;SDS011;6451;42.630;23.382;2022-11-14T08:32:21;37.03;;;22.13;;
12774;SDS011;6451;42.630;23.382;2022-11-14T08:34:50;47.30;;;23.43;;
12774;SDS011;6451;42.630;23.382;2022-11-14T08:37:17;31.87;;;22.13;;
12774;SDS011;6451;42.630;23.382;2022-11-14T08:39:44;34.00;;;22.77;;
12774;SDS011;6451;42.630;23.382;2022-11-14T08:42:10;34.57;;;22.13;;
12774;SDS011;6451;42.630;23.382;2022-11-14T08:44:37;44.93;;;22.00;;
12774;SDS011;6451;42.630;23.382;2022-11-14T08:47:04;30.60;;;21.33;;
12774;SDS011;6451;42.630;23.382;2022-11-14T08:49:31;36.90;;;22.27;;
12774;SDS011;6451;42.630;23.382;2022-11-14T08:51:59;46.17;;;23.03;;
12774;SDS011;6451;42.630;23.382;2022-11-14T08:54:26;87.90;;;25.23;;
12774;SDS011;6451;42.630;23.382;2022-11-14T08:56:54;44.13;;;25.27;;
12774;SDS011;6451;42.630;23.382;2022-11-14T08:59:21;40.70;;;25.57;;
12774;SDS011;6451;42.630;23.382;2022-11-14T09:01:48;38.23;;;26.13;;
12774;SDS011;6451;42.630;23.382;2022-11-14T09:04:15;35.90;;;25.30;;
12774;SDS011;6451;42.630;23.382;2022-11-14T09:06:43;39.53;;;25.00;;
12774;SDS011;6451;42.630;23.382;2022-11-14T09:09:13;39.93;;;25.53;;
12774;SDS011;6451;42.630;23.382;2022-11-14T09:11:41;34.10;;;24.87;;
12774;SDS011;6451;42.630;23.382;2022-11-14T09:14:07;36.17;;;25.03;;
12774;SDS011;6451;42.630;23.382;2022-11-14T09:16:34;39.70;;;24.63;;
12774;SDS011;6451;42.630;23.382;2022-11-14T09:19:01;33.87;;;24.70;;
12774;SDS011;6451;42.630;23.382;2022-11-14T09:21:28;33.70;;;23.23;;
12774;SDS011;6451;42.630;23.382;2022-11-14T09:23:55;32.23;;;23.87;;
12774;SDS011;6451;42.630;23.382;2022-11-14T09:26:24;38.00;;;24.47;;
12774;SDS011;6451;42.630;23.382;2022-11-14T09:28:51;34.87;;;24.00;;
12774;SDS011;6451;42.630;23.382;2022-11-14T09:31:18;44.13;;;24.57;;
12774;SDS011;6451;42.630;23.382;2022-11-14T09:33:45;36.20;;;24.93;;
12774;SDS011;6451;42.630;23.382;2022-11-14T09:36:12;36.10;;;25.67;;
12774;SDS011;6451;42.630;23.382;2022-11-14T09:38:41;37.37;;;25.20;;
12774;SDS011;6451;42.630;23.382;2022-11-14T09:41:20;35.97;;;24.47;;
12774;SDS011;6451;42.630;23.382;2022-11-14T09:44:15;38.97;;;25.60;;
12774;SDS011;6451;42.630;23.382;2022-11-14T09:46:55;40.60;;;26.03;;
12774;SDS011;6451;42.630;23.382;2022-11-14T09:49:24;36.37;;;25.93;;
12774;SDS011;6451;42.630;23.382;2022-11-14T09:51:58;37.10;;;26.40;;
12774;SDS011;6451;42.630;23.382;2022-11-14T09:54:33;37.53;;;25.60;;
12774;SDS011;6451;42.630;23.382;2022-11-14T09:57:12;36.37;;;24.23;;
12774;SDS011;6451;42.630;23.382;2022-11-14T09:59:42;39.37;;;26.03;;
12774;SDS011;6451;42.630;23.382;2022-11-14T10:02:16;39.93;;;26.53;;
12774;SDS011;6451;42.630;23.382;2022-11-14T10:04:55;38.93;;;25.93;;
12774;SDS011;6451;42.630;23.382;2022-11-14T10:07:49;40.57;;;25.77;;
12774;SDS011;6451;42.630;23.382;2022-11-14T10:10:27;40.43;;;26.83;;
12774;SDS011;6451;42.630;23.382;2022-11-14T10:13:05;40.33;;;25.90;;
12774;SDS011;6451;42.630;23.382;2022-11-14T10:15:43;36.97;;;25.37;;
12774;SDS011;6451;42.630;23.382;2022-11-14T10:18:26;38.77;;;25.93;;
12774;SDS011;6451;42.630;23.382;2022-11-14T10:21:04;40.53;;;25.47;;
12774;SDS011;6451;42.630;23.382;2022-11-14T10:23:42;44.53;;;26.53;;
12774;SDS011;6451;42.630;23.382;2022-11-14T10:26:17;41.10;;;27.20;;
12774;SDS011;6451;42.630;23.382;2022-11-14T10:28:58;34.43;;;22.13;;
12774;SDS011;6451;42.630;23.382;2022-11-14T10:31:46;43.10;;;27.47;;
12774;SDS011;6451;42.630;23.382;2022-11-14T10:34:22;43.60;;;28.50;;
12774;SDS011;6451;42.630;23.382;2022-11-14T10:36:56;40.37;;;27.47;;
12774;SDS011;6451;42.630;23.382;2022-11-14T10:39:34;42.17;;;27.43;;
12774;SDS011;6451;42.630;23.382;2022-11-14T10:42:08;42.93;;;29.60;;
12774;SDS011;6451;42.630;23.382;2022-11-14T10:44:39;46.60;;;30.27;;
12774;SDS011;6451;42.630;23.382;2022-11-14T10:47:17;44.17;;;29.43;;
12774;SDS011;6451;42.630;23.382;2022-11-14T10:49:48;42.40;;;29.47;;
12774;SDS011;6451;42.630;23.382;2022-11-14T10:52:21;42.17;;;28.93;;
12774;SDS011;6451;42.630;23.382;2022-11-14T10:55:05;44.27;;;29.83;;
12774;SDS011;6451;42.630;23.382;2022-11-14T10:57:33;43.53;;;30.20;;
12774;SDS011;6451;42.630;23.382;2022-11-14T11:00:00;45.30;;;31.93;;
12774;SDS011;6451;42.630;23.382;2022-11-14T11:02:36;45.03;;;31.80;;
12774;SDS011;6451;42.630;23.382;2022-11-14T11:05:15;43.50;;;30.93;;
12774;SDS011;6451;42.630;23.382;2022-11-14T11:07:43;46.87;;;30.50;;
12774;SDS011;6451;42.630;23.382;2022-11-14T11:10:28;44.03;;;29.97;;
12774;SDS011;6451;42.630;23.382;2022-11-14T11:13:26;42.37;;;29.70;;
12774;SDS011;6451;42.630;23.382;2022-11-14T11:15:57;42.10;;;28.90;;
12774;SDS011;6451;42.630;23.382;2022-11-14T11:18:27;40.77;;;28.43;;
12774;SDS011;6451;42.630;23.382;2022-11-14T11:21:03;43.17;;;28.63;;
12774;SDS011;6451;42.630;23.382;2022-11-14T11:23:32;43.80;;;29.53;;
12774;SDS011;6451;42.630;23.382;2022-11-14T11:26:01;47.07;;;30.93;;
12774;SDS011;6451;42.630;23.382;2022-11-14T11:28:35;42.43;;;29.67;;
12774;SDS011;6451;42.630;23.382;2022-11-14T11:31:03;45.40;;;29.13;;
12774;SDS011;6451;42.630;23.382;2022-11-14T11:33:33;48.10;;;28.50;;
12774;SDS011;6451;42.630;23.382;2022-11-14T11:36:01;39.43;;;27.40;;
12774;SDS011;6451;42.630;23.382;2022-11-14T11:38:31;39.23;;;27.97;;
12774;SDS011;6451;42.630;23.382;2022-11-14T11:41:02;40.93;;;28.27;;
12774;SDS011;6451;42.630;23.382;2022-11-14T11:43:35;39.97;;;26.33;;
12774;SDS011;6451;42.630;23.382;2022-11-14T11:46:07;36.57;;;26.27;;
12774;SDS011;6451;42.630;23.382;2022-11-14T11:48:40;40.07;;;27.73;;
12774;SDS011;6451;42.630;23.382;2022-11-14T11:51:15;41.67;;;28.13;;
12774;SDS011;6451;42.630;23.382;2022-11-14T11:53:50;39.10;;;26.23;;
12774;SDS011;6451;42.630;23.382;2022-11-14T11:56:24;39.23;;;27.10;;
12774;SDS011;6451;42.630;23.382;2022-11-14T11:58:56;37.30;;;26.77;;
12774;SDS011;6451;42.630;23.382;2022-11-14T12:01:31;39.60;;;26.47;;
12774;SDS011;6451;42.630;23.382;2022-11-14T12:03:59;39.07;;;26.73;;
12774;SDS011;6451;42.630;23.382;2022-11-14T12:06:28;39.80;;;27.17;;
12774;SDS011;6451;42.630;23.382;2022-11-14T12:09:03;40.57;;;27.63;;
12774;SDS011;6451;42.630;23.382;2022-11-14T12:11:36;42.80;;;28.70;;
12774;SDS011;6451;42.630;23.382;2022-11-14T12:17:11;40.33;;;28.03;;
12774;SDS011;6451;42.630;23.382;2022-11-14T12:19:58;42.93;;;29.80;;
12774;SDS011;6451;42.630;23.382;2022-11-14T12:22:49;44.00;;;30.53;;
12774;SDS011;6451;42.630;23.382;2022-11-14T12:25:43;49.87;;;30.63;;
12774;SDS011;6451;42.630;23.382;2022-11-14T12:28:34;46.87;;;31.53;;
12774;SDS011;6451;42.630;23.382;2022-11-14T12:31:15;44.50;;;31.93;;
12774;SDS011;6451;42.630;23.382;2022-11-14T12:33:44;46.53;;;31.50;;
12774;SDS011;6451;42.630;23.382;2022-11-14T12:36:23;41.40;;;31.30;;
12774;SDS011;6451;42.630;23.382;2022-11-14T12:38:54;45.17;;;30.70;;
12774;SDS011;6451;42.630;23.382;2022-11-14T12:41:23;47.47;;;32.17;;
12774;SDS011;6451;42.630;23.382;2022-11-14T12:43:53;41.73;;;31.17;;
12774;SDS011;6451;42.630;23.382;2022-11-14T12:49:56;44.27;;;31.60;;
12774;SDS011;6451;42.630;23.382;2022-11-14T12:52:46;41.93;;;29.87;;
12774;SDS011;6451;42.630;23.382;2022-11-14T12:58:22;42.93;;;29.43;;
12774;SDS011;6451;42.630;23.382;2022-11-14T13:01:03;45.47;;;30.30;;
12774;SDS011;6451;42.630;23.382;2022-11-14T13:03:46;43.93;;;29.10;;
12774;SDS011;6451;42.630;23.382;2022-11-14T13:06:23;41.77;;;29.37;;
12774;SDS011;6451;42.630;23.382;2022-11-14T13:09:14;43.17;;;29.73;;
12774;SDS011;6451;42.630;23.382;2022-11-14T13:12:24;43.10;;;28.83;;
12774;SDS011;6451;42.630;23.382;2022-11-14T13:15:21;43.43;;;30.77;;
12774;SDS011;6451;42.630;23.382;2022-11-14T13:18:13;49.73;;;31.17;;
12774;SDS011;6451;42.630;23.382;2022-11-14T13:21:02;40.90;;;30.20;;
12774;SDS011;6451;42.630;23.382;2022-11-14T13:23:57;44.23;;;30.90;;
12774;SDS011;6451;42.630;23.382;2022-11-14T13:26:41;42.87;;;31.60;;
12774;SDS011;6451;42.630;23.382;2022-11-14T13:35:36;45.77;;;31.87;;
12774;SDS011;6451;42.630;23.382;2022-11-14T13:38:11;42.20;;;32.13;;
12774;SDS011;6451;42.630;23.382;2022-11-14T13:41:02;47.37;;;32.67;;
12774;SDS011;6451;42.630;23.382;2022-11-14T13:43:49;40.67;;;31.57;;
12774;SDS011;6451;42.630;23.382;2022-11-14T13:46:28;45.07;;;31.67;;
12774;SDS011;6451;42.630;23.382;2022-11-14T13:49:17;48.00;;;32.43;;
12774;SDS011;6451;42.630;23.382;2022-11-14T13:51:54;46.80;;;32.43;;
12774;SDS011;6451;42.630;23.382;2022-11-14T13:54:21;44.23;;;31.20;;
12774;SDS011;6451;42.630;23.382;2022-11-14T13:56:51;46.97;;;31.23;;
12774;SDS011;6451;42.630;23.382;2022-11-14T14:02:34;44.57;;;32.10;;
12774;SDS011;6451;42.630;23.382;2022-11-14T14:05:14;45.23;;;31.23;;
12774;SDS011;6451;42.630;23.382;2022-11-14T14:07:51;48.77;;;32.90;;
12774;SDS011;6451;42.630;23.382;2022-11-14T14:10:30;47.73;;;34.23;;
12774;SDS011;6451;42.630;23.382;2022-11-14T14:13:10;52.53;;;33.50;;
12774;SDS011;6451;42.630;23.382;2022-11-14T14:15:48;56.10;;;34.83;;
12774;SDS011;6451;42.630;23.382;2022-11-14T14:18:26;56.23;;;35.83;;
12774;SDS011;6451;42.630;23.382;2022-11-14T14:21:11;56.87;;;35.80;;
12774;SDS011;6451;42.630;23.382;2022-11-14T14:23:47;59.27;;;37.37;;
12774;SDS011;6451;42.630;23.382;2022-11-14T14:26:21;54.93;;;35.53;;
12774;SDS011;6451;42.630;23.382;2022-11-14T14:28:53;55.83;;;36.90;;
12774;SDS011;6451;42.630;23.382;2022-11-14T14:31:32;57.67;;;37.40;;
12774;SDS011;6451;42.630;23.382;2022-11-14T14:34:17;57.83;;;36.30;;
12774;SDS011;6451;42.630;23.382;2022-11-14T14:36:50;64.60;;;36.70;;
12774;SDS011;6451;42.630;23.382;2022-11-14T14:39:19;57.77;;;37.87;;
12774;SDS011;6451;42.630;23.382;2022-11-14T14:41:51;62.20;;;37.27;;
12774;SDS011;6451;42.630;23.382;2022-11-14T14:44:22;62.90;;;38.77;;
12774;SDS011;6451;42.630;23.382;2022-11-14T14:46:53;64.87;;;39.13;;
12774;SDS011;6451;42.630;23.382;2022-11-14T14:49:21;68.03;;;39.07;;
12774;SDS011;6451;42.630;23.382;2022-11-14T14:51:51;75.87;;;40.07;;
12774;SDS011;6451;42.630;23.382;2022-11-14T14:54:19;66.53;;;40.80;;
12774;SDS011;6451;42.630;23.382;2022-11-14T14:56:58;66.70;;;41.23;;
12774;SDS011;6451;42.630;23.382;2022-11-14T14:59:28;54.17;;;38.27;;
12774;SDS011;6451;42.630;23.382;2022-11-14T15:01:58;65.67;;;38.67;;